Latest Weather Observations for Aireys Inlet

IDV60801

Issued at 11:31 pm EST Tuesday 26 May 2015 (issued every 30 minutes, with the page automatically refreshed every 10 minutes)

About weather observations | Map of weather stations | Latest weather observations for VIC | Other Formats
Station Details ID: 090180 Name: AIREYS INLET Lat: -38.46 Lon: 144.09 Height: 95.0 m
Data from the previous 72 hours. | See also: Recent months at Aireys Inlet
Date/Time
EST
Temp
°C
App
Temp
°C
Dew
Point
Rel
Hum
%
Delta-T
°C
Wind Press
QNH
hPa
Press
MSL
hPa
Rain
since 9 am
mm
Dir
 
Spd
km/h
Gust
km/h
Spd
kts
Gust
kts
26/11:30pm 12.5 10.5 7.2 70 2.6 NNW 7 13 4 7 - - 0.0
26/11:00pm 11.4 9.6 7.9 79 1.7 NNE 7 11 4 6 - - 0.0
26/10:30pm 11.4 9.2 7.9 79 1.7 NE 9 13 5 7 - - 0.0
26/10:00pm 11.4 9.3 8.1 80 1.6 NE 9 15 5 8 - - 0.0
26/09:30pm 11.3 9.7 8.0 80 1.6 NNE 6 9 3 5 - - 0.0
26/09:00pm 10.6 9.3 7.8 83 1.4 NNE 4 6 2 3 - - 0.0
26/08:30pm 10.4 8.5 7.5 82 1.4 NNE 7 9 4 5 - - 0.0
26/08:00pm 10.8 9.0 7.3 79 1.7 N 6 7 3 4 - - 0.0
26/07:30pm 10.6 8.2 6.9 78 1.8 N 9 13 5 7 - - 0.0
26/07:00pm 10.7 7.9 7.0 78 1.8 NNE 11 13 6 7 - - 0.0
26/06:30pm 11.1 8.4 7.2 77 1.9 N 11 13 6 7 - - 0.0
26/06:00pm 11.5 9.3 7.8 78 1.8 N 9 13 5 7 - - 0.0
26/05:30pm 12.2 10.1 8.1 76 2.0 NNE 9 13 5 7 - - 0.0
26/05:00pm 12.7 10.7 8.6 76 2.1 NNE 9 11 5 6 - - 0.0
26/04:30pm 13.1 11.5 8.8 75 2.2 NE 7 11 4 6 - - 0.0
26/04:00pm 13.9 12.2 8.3 69 2.8 NNE 7 11 4 6 - - 0.0
26/03:30pm 14.0 12.2 8.0 67 3.0 NE 7 11 4 6 - - 0.0
26/03:00pm 14.3 12.8 8.5 68 2.9 NE 6 9 3 5 - - 0.0
26/02:30pm 13.8 12.6 8.0 68 2.9 N 4 6 2 3 - - 0.0
26/02:00pm 14.2 13.0 7.9 66 3.1 NNE 4 6 2 3 - - 0.0
26/01:30pm 14.5 12.9 8.2 66 3.2 NNW 6 9 3 5 - - 0.0
26/01:00pm 15.3 13.2 8.3 63 3.5 N 9 15 5 8 - - 0.0
26/12:30pm 13.7 12.2 8.3 70 2.7 N 6 9 3 5 - - 0.0
26/12:00pm 13.7 12.1 8.1 69 2.8 NNW 6 7 3 4 - - 0.0
26/11:30am 13.1 10.8 7.3 68 2.8 NW 9 13 5 7 - - 0.0
26/11:00am 12.4 9.7 7.5 72 2.4 NW 11 15 6 8 - - 0.0
26/10:30am 12.2 9.0 6.9 70 2.6 NW 13 19 7 10 - - 0.0
26/10:00am 11.4 8.6 7.1 75 2.1 NW 11 15 6 8 - - 0.0
26/09:30am 11.0 8.1 6.7 75 2.0 NW 11 15 6 8 - - 0.0
26/09:00am 10.2 7.6 6.2 76 1.9 NNW 9 13 5 7 - - 0.0
26/08:30am 9.8 7.2 6.0 77 1.8 NNW 9 13 5 7 - - 0.0
26/08:00am 9.9 7.6 5.7 75 1.9 NNW 7 11 4 6 - - 0.0
26/07:30am 9.7 7.4 5.7 76 1.8 NW 7 9 4 5 - - 0.0
26/07:00am 9.9 6.5 5.9 76 1.8 NW 13 19 7 10 - - 0.0
26/06:30am 10.3 6.9 5.9 74 2.0 NW 13 19 7 10 - - 0.0
26/06:00am 10.4 6.6 6.0 74 2.0 NW 15 20 8 11 - - 0.0
26/05:30am 10.4 6.3 6.0 74 2.0 NW 17 24 9 13 - - 0.0
26/05:00am 10.6 6.1 6.0 73 2.1 NW 19 26 10 14 - - 0.0
26/04:30am 10.9 5.8 5.9 71 2.3 NW 22 30 12 16 - - 0.0
26/04:00am 10.4 5.7 6.0 74 2.0 NW 20 28 11 15 - - 0.0
26/03:30am 10.2 5.5 6.2 76 1.9 NW 20 26 11 14 - - 0.0
26/03:00am 10.9 5.8 6.1 72 2.2 NW 22 28 12 15 - - 0.0
26/02:30am 10.7 5.3 6.3 74 2.1 NW 24 30 13 16 - - 0.0
26/02:00am 10.7 5.3 6.3 74 2.1 NW 24 32 13 17 - - 0.0
26/01:30am 10.3 5.3 6.3 76 1.9 NW 22 28 12 15 - - 0.0
26/01:00am 10.3 5.7 6.5 77 1.8 NW 20 26 11 14 - - 0.0
26/12:30am 9.5 5.1 6.6 82 1.4 NW 19 24 10 13 - - 0.0
26/12:00am 9.5 5.9 6.6 82 1.4 NW 15 17 8 9 - - 0.0
 
Date/Time
EST
Temp
°C
App
Temp
°C
Dew
Point
Rel
Hum
%
Delta-T
°C
Wind Press
QNH
hPa
Press
MSL
hPa
Rain
since 9 am
mm
Dir
 
Spd
km/h
Gust
km/h
Spd
kts
Gust
kts
25/11:30pm 9.0 5.7 6.4 84 1.2 NNW 13 17 7 9 - - 0.0
25/11:00pm 9.3 6.0 6.6 83 1.3 NNW 13 15 7 8 - - 0.0
25/10:30pm 9.0 5.7 6.6 85 1.1 NNW 13 15 7 8 - - 0.0
25/10:00pm 9.2 6.0 6.8 85 1.1 NNW 13 15 7 8 - - 0.0
25/09:30pm 9.3 6.5 7.1 86 1.0 NNW 11 13 6 7 - - 0.0
25/09:00pm 9.5 6.8 7.3 86 1.0 NNW 11 15 6 8 - - 0.0
25/08:30pm 9.8 7.5 7.4 85 1.1 NNW 9 11 5 6 - - 0.0
25/08:00pm 9.7 7.0 7.5 86 1.1 NNW 11 13 6 7 - - 0.0
25/07:30pm 10.1 7.9 7.9 86 1.1 NNW 9 11 5 6 - - 0.0
25/07:00pm 10.3 8.1 7.9 85 1.2 NNW 9 11 5 6 - - 0.0
25/06:30pm 11.1 9.4 8.3 83 1.4 NNW 7 9 4 5 - - 0.0
25/06:00pm 11.9 10.8 8.4 79 1.7 NNW 4 6 2 3 - - 0.0
25/05:30pm 12.9 11.7 9.4 79 1.8 E 6 6 3 3 - - 0.0
25/05:00pm 13.6 12.5 8.4 71 2.6 ESE 4 4 2 2 - - 0.0
25/04:30pm 13.9 12.7 7.9 67 3.0 E 4 4 2 2 - - 0.0
25/04:00pm 14.4 13.3 8.4 67 3.0 E 4 6 2 3 - - 0.0
25/03:30pm 14.9 13.7 8.2 64 3.4 ESE 4 7 2 4 - - 0.0
25/03:00pm 15.6 14.1 8.4 62 3.7 SE 6 7 3 4 - - 0.0
25/02:30pm 16.3 14.5 7.3 55 4.5 SSE 6 7 3 4 - - 0.0
25/02:00pm 17.0 13.9 7.1 52 5.0 WSW 13 19 7 10 - - 0.0
25/01:30pm 17.1 14.9 8.0 55 4.6 SW 9 13 5 7 - - 0.0
25/01:00pm 16.4 14.4 7.1 54 4.6 WNW 7 13 4 7 - - 0.0
25/12:30pm 15.6 12.1 7.1 57 4.2 WNW 15 24 8 13 - - 0.0
25/12:00pm 15.1 12.0 7.4 60 3.8 W 13 20 7 11 - - 0.0
25/11:30am 14.4 10.4 6.7 60 3.8 W 17 28 9 15 - - 0.0
25/11:00am 14.4 11.4 7.5 63 3.4 W 13 22 7 12 - - 0.0
25/10:30am 13.8 10.6 6.7 62 3.4 NW 13 20 7 11 - - 0.0
25/10:00am 12.8 9.6 6.8 67 2.9 NW 13 24 7 13 - - 0.0
25/09:30am 11.9 9.8 6.6 70 2.5 NW 7 15 4 8 - - 0.0
25/09:00am 11.0 6.9 6.4 73 2.2 NW 17 28 9 15 - - 0.0
25/08:30am 11.4 8.0 6.1 70 2.5 W 13 24 7 13 - - 0.0
25/08:00am 10.6 8.0 6.2 74 2.1 WNW 9 17 5 9 - - 0.0
25/07:30am 10.2 8.2 6.2 76 1.9 S 6 13 3 7 - - 0.0
25/07:00am 10.0 5.5 6.0 76 1.9 NW 19 30 10 16 - - 0.0
25/06:30am 10.4 7.8 6.2 75 2.0 WNW 9 19 5 10 - - 0.0
25/06:00am 9.8 7.2 6.2 78 1.7 NNW 9 13 5 7 - - 0.0
25/05:30am 9.8 7.2 6.0 77 1.8 NW 9 17 5 9 - - 0.0
25/05:00am 9.5 6.9 6.0 79 1.6 NNW 9 15 5 8 - - 0.0
25/04:30am 9.5 7.3 6.0 79 1.6 NNW 7 13 4 7 - - 0.0
25/04:00am 10.0 7.0 6.2 77 1.8 WNW 11 19 6 10 - - 0.0
25/03:30am 9.6 7.4 6.1 79 1.6 NNW 7 15 4 8 - - 0.0
25/03:00am 9.9 6.2 6.1 77 1.8 NW 15 24 8 13 - - 0.0
25/02:30am 10.0 4.2 6.2 77 1.8 NW 26 37 14 20 - - 0.0
25/02:00am 9.9 5.4 6.3 78 1.7 NW 19 28 10 15 - - 0.0
25/01:30am 10.3 5.8 6.3 76 1.9 NW 19 28 10 15 - - 0.0
25/01:00am 10.5 5.9 6.3 75 2.0 NW 20 28 11 15 - - 0.0
25/12:30am 10.8 5.4 6.4 74 2.1 NW 24 32 13 17 - - 0.0
25/12:00am 10.7 6.2 6.3 74 2.1 NW 19 22 10 12 - - 0.0
 
Date/Time
EST
Temp
°C
App
Temp
°C
Dew
Point
Rel
Hum
%
Delta-T
°C
Wind Press
QNH
hPa
Press
MSL
hPa
Rain
since 9 am
mm
Dir
 
Spd
km/h
Gust
km/h
Spd
kts
Gust
kts
24/11:30pm 10.9 6.3 6.5 74 2.1 NW 20 26 11 14 - - 0.0
24/11:00pm 10.7 5.7 6.5 75 2.0 NW 22 28 12 15 - - 0.0
24/10:30pm 10.2 5.2 6.4 77 1.8 NW 22 30 12 16 - - 0.0
24/10:00pm 10.0 6.0 6.5 79 1.6 NW 17 22 9 12 - - 0.0
24/09:30pm 9.6 6.4 6.7 82 1.4 NW 13 17 7 9 - - 0.0
24/09:00pm 8.9 5.7 6.7 86 1.0 NW 13 15 7 8 - - 0.0
24/08:30pm 8.8 6.0 6.9 88 0.9 NW 11 13 6 7 - - 0.0
24/08:00pm 9.1 6.3 7.1 87 0.9 NNW 11 13 6 7 - - 0.0
24/07:30pm 9.3 6.6 7.3 87 0.9 NNW 11 13 6 7 - - 0.0
24/07:00pm 9.5 7.2 7.6 88 0.9 NNW 9 13 5 7 - - 0.0
24/06:30pm 10.2 8.3 7.6 84 1.3 NNW 7 11 4 6 - - 0.0
24/06:00pm 10.7 9.0 7.6 81 1.5 N 6 7 3 4 - - 0.0
24/05:30pm 11.5 10.1 7.2 75 2.1 NW 4 6 2 3 - - 0.0
24/05:00pm 11.8 10.1 7.5 75 2.1 NW 6 7 3 4 - - 0.0
24/04:30pm 12.4 11.1 7.7 73 2.3 NW 4 6 2 3 - - 0.0
24/04:00pm 13.1 10.8 7.5 69 2.7 WNW 9 13 5 7 - - 0.0
24/03:30pm 14.0 12.4 7.8 66 3.1 WNW 6 9 3 5 - - 0.0
24/03:00pm 14.0 12.1 7.5 65 3.2 NW 7 17 4 9 - - 0.0
24/02:30pm 13.4 10.6 7.0 65 3.1 WNW 11 15 6 8 - - 0.0
24/02:00pm 13.8 10.9 6.4 61 3.6 WNW 11 19 6 10 - - 0.0
24/01:30pm 13.8 10.2 6.9 63 3.4 WNW 15 20 8 11 - - 0.0
24/01:00pm 13.2 9.5 6.3 63 3.3 NW 15 22 8 12 - - 0.0
24/12:30pm 13.3 9.6 6.2 62 3.4 W 15 20 8 11 - - 0.0
24/12:00pm 13.3 10.8 6.4 63 3.3 NW 9 13 5 7 - - 0.0
24/11:30am 13.0 10.0 6.1 63 3.3 WNW 11 17 6 9 - - 0.0
24/11:00am 12.1 9.7 7.0 71 2.5 N 9 13 5 7 - - 0.0
24/10:30am 10.9 8.1 6.8 76 1.9 NNE 11 17 6 9 - - 0.0
24/10:00am 8.6 6.0 6.1 84 1.1 NNE 9 13 5 7 - - 0.0
24/09:30am 8.1 5.0 5.7 85 1.1 N 11 17 6 9 - - 0.0
24/09:00am 7.5 4.0 5.6 88 0.9 N 13 19 7 10 - - 0.0
24/08:30am 6.8 3.7 5.4 91 0.6 N 11 17 6 9 - - 0.0
24/08:00am 6.8 3.3 5.4 91 0.6 N 13 20 7 11 - - 0.0
24/07:30am 7.2 4.5 5.7 90 0.7 N 9 13 5 7 - - 0.0
24/07:00am 7.2 5.0 5.5 89 0.8 NNW 6 9 3 5 - - 0.0
24/06:30am 7.1 4.7 5.4 89 0.8 N 7 11 4 6 - - 0.0
24/06:00am 7.1 4.4 5.4 89 0.8 N 9 13 5 7 - - 0.0
24/05:30am 7.0 3.5 5.3 89 0.8 N 13 19 7 10 - - 0.0
24/05:00am 7.6 4.2 5.7 88 0.9 N 13 19 7 10 - - 0.0
24/04:30am 7.8 4.8 5.9 88 0.9 NNE 11 17 6 9 - - 0.0
24/04:00am 8.1 5.5 6.1 87 0.9 N 9 13 5 7 - - 0.0
24/03:30am 8.2 5.6 6.2 87 0.9 N 9 15 5 8 - - 0.0
24/03:00am 8.5 6.4 6.5 87 0.9 N 7 11 4 6 - - 0.0
24/02:30am 8.5 6.9 6.5 87 0.9 N 4 6 2 3 - - 0.0
24/02:00am 8.4 6.4 6.2 86 1.0 N 6 7 3 4 - - 0.0
24/01:30am 8.4 6.8 6.2 86 1.0 NNE 4 7 2 4 - - 0.0
24/01:00am 8.6 6.6 6.4 86 1.0 NNE 6 9 3 5 - - 0.0
24/12:30am 8.7 6.7 6.2 84 1.2 N 6 7 3 4 - - 0.0
24/12:00am 8.7 7.4 6.0 83 1.2 N 2 4 1 2 - - 0.0

Other Formats:

Comma delimited format used in spreadsheet applications
http://www.bom.gov.au/fwo/IDV60801/IDV60801.94846.axf

JavaScript Object Notation format (JSON) in row-major order
http://www.bom.gov.au/fwo/IDV60801/IDV60801.94846.json